LOT135 EPWA-LTFM
Flight info
| Callsign | LOT135 |
|---|---|
| Flight time | 2h 10m |
| Altitude | 35000 |
| Route | XIMBA N195 NATEV DCT ROBTU DCT KENIN DCT KARIL DCT BUVAK DCT RIXEN |
| Aircraft | B738/M-SDE2E3FGHIRWXY/LB1 |
Departure
| Time | 2026-05-07 18:55 |
|---|---|
| Airport | Warsaw Chopin Airport (EPWA) |
Arrival
| Time | 2026-05-07 21:06 |
|---|---|
| Airport | İstanbul Airport (LTFM) |
| Time | Latitude | Longitude | Altitude | Speed | Heading |
|---|---|---|---|---|---|
| 2026-05-07 18:30 | 52.17479 | 20.96960 | 340 ft | 0 kts | 241° |
| 2026-05-07 18:45 | 52.17479 | 20.96962 | 339 ft | 1 kts | 238° |
| 2026-05-07 18:46 | 52.17486 | 20.96981 | 339 ft | 1 kts | 240° |
| 2026-05-07 18:46 | 52.17491 | 20.97000 | 339 ft | 1 kts | 251° |
| 2026-05-07 18:46 | 52.17494 | 20.97022 | 340 ft | 1 kts | 266° |
| 2026-05-07 18:46 | 52.17490 | 20.97058 | 341 ft | 2 kts | 298° |
| 2026-05-07 18:47 | 52.17481 | 20.97078 | 341 ft | 2 kts | 315° |
| 2026-05-07 18:47 | 52.17469 | 20.97093 | 341 ft | 2 kts | 333° |
| 2026-05-07 18:47 | 52.17461 | 20.97099 | 341 ft | 0 kts | 333° |
| 2026-05-07 18:49 | 52.17503 | 20.97063 | 341 ft | 10 kts | 331° |
| 2026-05-07 18:49 | 52.17577 | 20.96996 | 341 ft | 12 kts | 330° |
| 2026-05-07 18:50 | 52.17625 | 20.96915 | 340 ft | 9 kts | 270° |
| 2026-05-07 18:50 | 52.17588 | 20.96798 | 339 ft | 15 kts | 234° |
| 2026-05-07 18:50 | 52.17530 | 20.96639 | 336 ft | 15 kts | 239° |
| 2026-05-07 18:50 | 52.17462 | 20.96494 | 333 ft | 15 kts | 242° |
| 2026-05-07 18:51 | 52.17384 | 20.96415 | 334 ft | 13 kts | 167° |
| 2026-05-07 18:51 | 52.17303 | 20.96479 | 333 ft | 13 kts | 153° |
| 2026-05-07 18:51 | 52.17188 | 20.96574 | 333 ft | 19 kts | 152° |
| 2026-05-07 18:51 | 52.17068 | 20.96681 | 331 ft | 21 kts | 155° |
| 2026-05-07 18:52 | 52.16901 | 20.96823 | 330 ft | 28 kts | 151° |
| 2026-05-07 18:52 | 52.16734 | 20.96973 | 332 ft | 26 kts | 153° |
| 2026-05-07 18:52 | 52.16651 | 20.97086 | 335 ft | 11 kts | 104° |
| 2026-05-07 18:52 | 52.16626 | 20.97192 | 336 ft | 9 kts | 113° |
| 2026-05-07 18:53 | 52.16583 | 20.97338 | 336 ft | 17 kts | 113° |
| 2026-05-07 18:53 | 52.16534 | 20.97511 | 337 ft | 16 kts | 115° |
| 2026-05-07 18:53 | 52.16475 | 20.97722 | 336 ft | 21 kts | 114° |
| 2026-05-07 18:53 | 52.16454 | 20.97787 | 335 ft | 3 kts | 139° |
| 2026-05-07 18:54 | 52.16384 | 20.97792 | 334 ft | 16 kts | 202° |
| 2026-05-07 18:54 | 52.16306 | 20.97709 | 333 ft | 8 kts | 252° |
| 2026-05-07 18:54 | 52.16311 | 20.97651 | 333 ft | 0 kts | 290° |
| 2026-05-07 18:54 | 52.16312 | 20.97649 | 333 ft | 3 kts | 290° |
| 2026-05-07 18:55 | 52.16423 | 20.97249 | 336 ft | 73 kts | 294° |
| 2026-05-07 18:55 | 52.16725 | 20.96164 | 336 ft | 133 kts | 295° |
| 2026-05-07 18:55 | 52.17169 | 20.94626 | 583 ft | 160 kts | 297° |
| 2026-05-07 18:55 | 52.17681 | 20.92926 | 1075 ft | 176 kts | 297° |
| 2026-05-07 18:56 | 52.18183 | 20.91213 | 1944 ft | 165 kts | 295° |
| 2026-05-07 18:56 | 52.18371 | 20.89300 | 2238 ft | 185 kts | 260° |
| 2026-05-07 18:56 | 52.17966 | 20.87248 | 2650 ft | 196 kts | 253° |
| 2026-05-07 18:56 | 52.17573 | 20.85039 | 2967 ft | 215 kts | 259° |
| 2026-05-07 18:57 | 52.17252 | 20.82576 | 3345 ft | 233 kts | 261° |
| 2026-05-07 18:57 | 52.16921 | 20.79952 | 3810 ft | 247 kts | 260° |
| 2026-05-07 18:57 | 52.16556 | 20.77121 | 4266 ft | 262 kts | 260° |
| 2026-05-07 18:57 | 52.16161 | 20.74185 | 4903 ft | 269 kts | 259° |
| 2026-05-07 18:58 | 52.15533 | 20.71324 | 5591 ft | 275 kts | 243° |
| 2026-05-07 18:58 | 52.14293 | 20.68942 | 6287 ft | 281 kts | 222° |
| 2026-05-07 18:58 | 52.12754 | 20.67039 | 6991 ft | 283 kts | 218° |
| 2026-05-07 18:58 | 52.11151 | 20.65151 | 7690 ft | 284 kts | 218° |
| 2026-05-07 18:59 | 52.09563 | 20.63306 | 8379 ft | 287 kts | 212° |
| 2026-05-07 18:59 | 52.07649 | 20.62319 | 9005 ft | 294 kts | 184° |
| 2026-05-07 18:59 | 52.05679 | 20.62930 | 9638 ft | 299 kts | 156° |
| 2026-05-07 18:59 | 52.03986 | 20.64927 | 10234 ft | 305 kts | 134° |
| 2026-05-07 19:00 | 52.02612 | 20.67616 | 10572 ft | 320 kts | 129° |
| 2026-05-07 19:00 | 52.01201 | 20.70544 | 10913 ft | 334 kts | 129° |
| 2026-05-07 19:00 | 51.99752 | 20.73545 | 11253 ft | 348 kts | 130° |
| 2026-05-07 19:00 | 51.98237 | 20.76665 | 11564 ft | 362 kts | 130° |
| 2026-05-07 19:01 | 51.96641 | 20.79935 | 12024 ft | 371 kts | 130° |
| 2026-05-07 19:01 | 51.95031 | 20.83227 | 12638 ft | 375 kts | 130° |
| 2026-05-07 19:01 | 51.93408 | 20.86544 | 13279 ft | 379 kts | 130° |
| 2026-05-07 19:01 | 51.91784 | 20.89857 | 13925 ft | 381 kts | 131° |
| 2026-05-07 19:02 | 51.90128 | 20.93235 | 14609 ft | 384 kts | 131° |
| 2026-05-07 19:02 | 51.88480 | 20.96594 | 15290 ft | 386 kts | 131° |
| 2026-05-07 19:02 | 51.86801 | 21.00007 | 15957 ft | 388 kts | 131° |
| 2026-05-07 19:02 | 51.85106 | 21.03447 | 16609 ft | 391 kts | 131° |
| 2026-05-07 19:03 | 51.83411 | 21.06881 | 17246 ft | 393 kts | 131° |
| 2026-05-07 19:03 | 51.81694 | 21.10355 | 17873 ft | 395 kts | 131° |
| 2026-05-07 19:03 | 51.79993 | 21.13792 | 18480 ft | 398 kts | 131° |
| 2026-05-07 19:03 | 51.78277 | 21.17257 | 19082 ft | 400 kts | 131° |
| 2026-05-07 19:04 | 51.76526 | 21.20788 | 19671 ft | 402 kts | 132° |
| 2026-05-07 19:04 | 51.74787 | 21.24289 | 20240 ft | 405 kts | 132° |
| 2026-05-07 19:04 | 51.73010 | 21.27862 | 20805 ft | 407 kts | 132° |
| 2026-05-07 19:04 | 51.71249 | 21.31398 | 21348 ft | 410 kts | 132° |
| 2026-05-07 19:05 | 51.69452 | 21.34999 | 21878 ft | 412 kts | 132° |
| 2026-05-07 19:05 | 51.67633 | 21.38510 | 22387 ft | 413 kts | 135° |
| 2026-05-07 19:05 | 51.65633 | 21.41850 | 22877 ft | 413 kts | 141° |
| 2026-05-07 19:05 | 51.63434 | 21.44766 | 23034 ft | 413 kts | 147° |
| 2026-05-07 19:06 | 51.61069 | 21.47374 | 23036 ft | 406 kts | 150° |
| 2026-05-07 19:06 | 51.56249 | 21.52033 | 23431 ft | 409 kts | 153° |
| 2026-05-07 19:06 | 51.53832 | 21.54278 | 24020 ft | 407 kts | 153° |
| 2026-05-07 19:07 | 51.51364 | 21.56570 | 24427 ft | 410 kts | 153° |
| 2026-05-07 19:07 | 51.48914 | 21.58856 | 24822 ft | 413 kts | 153° |
| 2026-05-07 19:07 | 51.46417 | 21.61200 | 25219 ft | 416 kts | 153° |
| 2026-05-07 19:07 | 51.43940 | 21.63534 | 25615 ft | 419 kts | 152° |
| 2026-05-07 19:08 | 51.41411 | 21.65924 | 26077 ft | 421 kts | 153° |
| 2026-05-07 19:08 | 51.38909 | 21.68295 | 26522 ft | 424 kts | 153° |
| 2026-05-07 19:08 | 51.36394 | 21.70680 | 26956 ft | 426 kts | 153° |
| 2026-05-07 19:08 | 51.33830 | 21.73115 | 27390 ft | 428 kts | 153° |
| 2026-05-07 19:09 | 51.31284 | 21.75532 | 27807 ft | 431 kts | 153° |
| 2026-05-07 19:09 | 51.28687 | 21.77997 | 28223 ft | 433 kts | 153° |
| 2026-05-07 19:09 | 51.26102 | 21.80447 | 28628 ft | 435 kts | 153° |
| 2026-05-07 19:09 | 51.23515 | 21.82899 | 29023 ft | 437 kts | 153° |
| 2026-05-07 19:10 | 51.20900 | 21.85372 | 29402 ft | 440 kts | 153° |
| 2026-05-07 19:10 | 51.18293 | 21.87832 | 29805 ft | 441 kts | 154° |
| 2026-05-07 19:10 | 51.15674 | 21.90300 | 30408 ft | 437 kts | 154° |
| 2026-05-07 19:10 | 51.13054 | 21.92763 | 30906 ft | 435 kts | 154° |
| 2026-05-07 19:11 | 51.10466 | 21.95188 | 31389 ft | 434 kts | 154° |
| 2026-05-07 19:11 | 51.07851 | 21.97632 | 31878 ft | 433 kts | 154° |
| 2026-05-07 19:11 | 51.05258 | 22.00052 | 32351 ft | 432 kts | 154° |
| 2026-05-07 19:11 | 51.02697 | 22.02438 | 32803 ft | 431 kts | 154° |
| 2026-05-07 19:12 | 51.00093 | 22.04860 | 33221 ft | 430 kts | 154° |
| 2026-05-07 19:12 | 50.97542 | 22.07229 | 33624 ft | 429 kts | 154° |
| 2026-05-07 19:12 | 50.94954 | 22.09630 | 34022 ft | 428 kts | 154° |
| 2026-05-07 19:12 | 50.92400 | 22.11963 | 34402 ft | 427 kts | 155° |
| 2026-05-07 19:13 | 50.89776 | 22.14029 | 34762 ft | 423 kts | 160° |
| 2026-05-07 19:13 | 50.87015 | 22.15595 | 35026 ft | 420 kts | 169° |
| 2026-05-07 19:13 | 50.84127 | 22.16294 | 35053 ft | 417 kts | 180° |
| 2026-05-07 19:13 | 50.81238 | 22.16202 | 35035 ft | 412 kts | 186° |
| 2026-05-07 19:14 | 50.75612 | 22.15264 | 34993 ft | 409 kts | 188° |
| 2026-05-07 19:14 | 50.70000 | 22.14113 | 34981 ft | 411 kts | 189° |
| 2026-05-07 19:15 | 50.66007 | 22.13304 | 34965 ft | 410 kts | 188° |
| 2026-05-07 19:15 | 50.60368 | 22.12199 | 34964 ft | 412 kts | 188° |
| 2026-05-07 19:16 | 50.54666 | 22.11116 | 34973 ft | 412 kts | 188° |
| 2026-05-07 19:16 | 50.48996 | 22.10057 | 34973 ft | 412 kts | 188° |
| 2026-05-07 19:17 | 50.43298 | 22.09003 | 34971 ft | 412 kts | 188° |
| 2026-05-07 19:17 | 50.37595 | 22.07952 | 34971 ft | 413 kts | 188° |
| 2026-05-07 19:18 | 50.31934 | 22.06912 | 34970 ft | 413 kts | 188° |
| 2026-05-07 19:18 | 50.26233 | 22.05864 | 34969 ft | 413 kts | 188° |
| 2026-05-07 19:19 | 50.20554 | 22.04826 | 34969 ft | 413 kts | 188° |
| 2026-05-07 19:19 | 50.14845 | 22.03785 | 34968 ft | 413 kts | 188° |
| 2026-05-07 19:20 | 50.09151 | 22.02749 | 34967 ft | 413 kts | 188° |
| 2026-05-07 19:20 | 50.03462 | 22.01716 | 34967 ft | 413 kts | 188° |
| 2026-05-07 19:21 | 49.97779 | 22.00687 | 34967 ft | 413 kts | 188° |
| 2026-05-07 19:21 | 49.92128 | 21.99665 | 34968 ft | 413 kts | 188° |
| 2026-05-07 19:22 | 49.86418 | 21.98635 | 34970 ft | 413 kts | 188° |
| 2026-05-07 19:22 | 49.80732 | 21.97612 | 34972 ft | 413 kts | 188° |
| 2026-05-07 19:23 | 49.75056 | 21.96594 | 34975 ft | 413 kts | 188° |
| 2026-05-07 19:23 | 49.69342 | 21.95571 | 34978 ft | 413 kts | 188° |
| 2026-05-07 19:24 | 49.63719 | 21.94566 | 34980 ft | 413 kts | 188° |
| 2026-05-07 19:24 | 49.58016 | 21.93550 | 34983 ft | 413 kts | 188° |
| 2026-05-07 19:25 | 49.52319 | 21.92537 | 34986 ft | 413 kts | 188° |
| 2026-05-07 19:25 | 49.46645 | 21.91531 | 34989 ft | 413 kts | 188° |
| 2026-05-07 19:26 | 49.40960 | 21.90525 | 34992 ft | 413 kts | 188° |
| 2026-05-07 19:26 | 49.35241 | 21.89515 | 34995 ft | 413 kts | 188° |
| 2026-05-07 19:27 | 49.29548 | 21.88515 | 34997 ft | 413 kts | 188° |
| 2026-05-07 19:27 | 49.23873 | 21.87517 | 35000 ft | 413 kts | 188° |
| 2026-05-07 19:28 | 49.18144 | 21.86512 | 34997 ft | 414 kts | 188° |
| 2026-05-07 19:28 | 49.12453 | 21.85516 | 34994 ft | 414 kts | 188° |
| 2026-05-07 19:29 | 49.06719 | 21.84514 | 34992 ft | 415 kts | 188° |
| 2026-05-07 19:29 | 49.01032 | 21.83524 | 34991 ft | 415 kts | 188° |
| 2026-05-07 19:30 | 48.95314 | 21.82531 | 34993 ft | 415 kts | 188° |
| 2026-05-07 19:30 | 48.89590 | 21.81380 | 34997 ft | 414 kts | 194° |
| 2026-05-07 19:31 | 48.83847 | 21.80863 | 35003 ft | 421 kts | 176° |
| 2026-05-07 19:31 | 48.78051 | 21.82393 | 34999 ft | 423 kts | 172° |
| 2026-05-07 19:32 | 48.72275 | 21.84133 | 34998 ft | 424 kts | 172° |
| 2026-05-07 19:32 | 48.66460 | 21.85706 | 34998 ft | 424 kts | 173° |
| 2026-05-07 19:33 | 48.60644 | 21.87128 | 34999 ft | 425 kts | 174° |
| 2026-05-07 19:33 | 48.54783 | 21.88492 | 35001 ft | 425 kts | 174° |
| 2026-05-07 19:34 | 48.48948 | 21.89825 | 35003 ft | 426 kts | 174° |
| 2026-05-07 19:34 | 48.43082 | 21.91156 | 35005 ft | 427 kts | 174° |
| 2026-05-07 19:35 | 48.37329 | 21.92876 | 35006 ft | 431 kts | 166° |
| 2026-05-07 19:35 | 48.31840 | 21.96478 | 35010 ft | 437 kts | 155° |
| 2026-05-07 19:36 | 48.26580 | 22.01145 | 35012 ft | 440 kts | 152° |
| 2026-05-07 19:36 | 48.21409 | 22.06002 | 35014 ft | 440 kts | 151° |
| 2026-05-07 19:37 | 48.16210 | 22.10858 | 35017 ft | 441 kts | 152° |
| 2026-05-07 19:37 | 48.10991 | 22.15666 | 35019 ft | 441 kts | 152° |
| 2026-05-07 19:38 | 48.05782 | 22.20417 | 35022 ft | 441 kts | 152° |
| 2026-05-07 19:38 | 48.00533 | 22.25177 | 35024 ft | 441 kts | 152° |
| 2026-05-07 19:39 | 47.95285 | 22.29918 | 35025 ft | 442 kts | 152° |
| 2026-05-07 19:39 | 47.90014 | 22.34665 | 35026 ft | 442 kts | 152° |
| 2026-05-07 19:40 | 47.84785 | 22.39364 | 35029 ft | 442 kts | 152° |
| 2026-05-07 19:40 | 47.79675 | 22.43975 | 35031 ft | 442 kts | 150° |
| 2026-05-07 19:41 | 47.74652 | 22.49300 | 35034 ft | 445 kts | 146° |
| 2026-05-07 19:41 | 47.69801 | 22.54989 | 35037 ft | 446 kts | 144° |
| 2026-05-07 19:42 | 47.64947 | 22.60742 | 35040 ft | 446 kts | 144° |
| 2026-05-07 19:42 | 47.60091 | 22.66427 | 35044 ft | 446 kts | 146° |
| 2026-05-07 19:43 | 47.55216 | 22.72070 | 35046 ft | 446 kts | 146° |
| 2026-05-07 19:43 | 47.50315 | 22.77702 | 35047 ft | 446 kts | 146° |
| 2026-05-07 19:44 | 47.45406 | 22.83317 | 35049 ft | 447 kts | 146° |
| 2026-05-07 19:44 | 47.40508 | 22.88902 | 35050 ft | 447 kts | 146° |
| 2026-05-07 19:45 | 47.35569 | 22.94520 | 35051 ft | 447 kts | 146° |
| 2026-05-07 19:45 | 47.30647 | 23.00106 | 35053 ft | 448 kts | 146° |
| 2026-05-07 19:46 | 47.25739 | 23.05660 | 35053 ft | 448 kts | 146° |
| 2026-05-07 19:46 | 47.20804 | 23.11234 | 35053 ft | 448 kts | 146° |
| 2026-05-07 19:47 | 47.15854 | 23.16811 | 35053 ft | 448 kts | 146° |
| 2026-05-07 19:47 | 47.10911 | 23.22366 | 35053 ft | 448 kts | 146° |
| 2026-05-07 19:48 | 47.05975 | 23.27899 | 35052 ft | 448 kts | 147° |
| 2026-05-07 19:48 | 47.01016 | 23.33445 | 35051 ft | 449 kts | 146° |
| 2026-05-07 19:49 | 46.96065 | 23.38968 | 35051 ft | 449 kts | 146° |
| 2026-05-07 19:49 | 46.91110 | 23.44484 | 35049 ft | 449 kts | 146° |
| 2026-05-07 19:50 | 46.86142 | 23.50000 | 35047 ft | 449 kts | 146° |
| 2026-05-07 19:50 | 46.81183 | 23.55492 | 35045 ft | 449 kts | 146° |
| 2026-05-07 19:51 | 46.76208 | 23.60990 | 35044 ft | 449 kts | 146° |
| 2026-05-07 19:51 | 46.71232 | 23.66477 | 35045 ft | 449 kts | 147° |
| 2026-05-07 19:52 | 46.66258 | 23.71949 | 35046 ft | 449 kts | 147° |
| 2026-05-07 19:52 | 46.61268 | 23.77423 | 35046 ft | 449 kts | 147° |
| 2026-05-07 19:53 | 46.56306 | 23.82855 | 35046 ft | 449 kts | 147° |
| 2026-05-07 19:53 | 46.51306 | 23.88316 | 35046 ft | 449 kts | 147° |
| 2026-05-07 19:54 | 46.46318 | 23.93753 | 35045 ft | 449 kts | 147° |
| 2026-05-07 19:54 | 46.41360 | 23.99142 | 35045 ft | 449 kts | 147° |
| 2026-05-07 19:55 | 46.36347 | 24.04578 | 35046 ft | 450 kts | 147° |
| 2026-05-07 19:55 | 46.31333 | 24.10001 | 35048 ft | 450 kts | 147° |
| 2026-05-07 19:56 | 46.26357 | 24.15370 | 35050 ft | 450 kts | 147° |
| 2026-05-07 19:56 | 46.21348 | 24.20763 | 35052 ft | 450 kts | 147° |
| 2026-05-07 19:57 | 46.16306 | 24.26180 | 35054 ft | 450 kts | 147° |
| 2026-05-07 19:57 | 46.11303 | 24.31543 | 35055 ft | 450 kts | 147° |
| 2026-05-07 19:58 | 46.06270 | 24.36925 | 35057 ft | 451 kts | 147° |
| 2026-05-07 19:58 | 46.01230 | 24.42301 | 35060 ft | 451 kts | 147° |
| 2026-05-07 19:59 | 45.96224 | 24.47627 | 35060 ft | 451 kts | 147° |
| 2026-05-07 19:59 | 45.91175 | 24.52989 | 35055 ft | 451 kts | 147° |
| 2026-05-07 20:00 | 45.86146 | 24.58317 | 35050 ft | 452 kts | 147° |
| 2026-05-07 20:00 | 45.81068 | 24.63685 | 35050 ft | 452 kts | 147° |
| 2026-05-07 20:01 | 45.76019 | 24.69009 | 35050 ft | 452 kts | 147° |
| 2026-05-07 20:01 | 45.70937 | 24.74356 | 35066 ft | 453 kts | 147° |
| 2026-05-07 20:02 | 45.65861 | 24.79684 | 35102 ft | 454 kts | 147° |
| 2026-05-07 20:02 | 45.60759 | 24.85026 | 34852 ft | 457 kts | 147° |
| 2026-05-07 20:03 | 45.58182 | 24.87720 | 34603 ft | 456 kts | 147° |
| 2026-05-07 20:03 | 45.55665 | 24.90349 | 34302 ft | 457 kts | 147° |
| 2026-05-07 20:03 | 45.53086 | 24.93038 | 33951 ft | 458 kts | 147° |
| 2026-05-07 20:03 | 45.50509 | 24.95723 | 33587 ft | 458 kts | 147° |
| 2026-05-07 20:04 | 45.47943 | 24.98394 | 33309 ft | 452 kts | 147° |
| 2026-05-07 20:04 | 45.45437 | 25.01001 | 33384 ft | 450 kts | 147° |
| 2026-05-07 20:04 | 45.42916 | 25.03620 | 33574 ft | 446 kts | 147° |
| 2026-05-07 20:04 | 45.40418 | 25.06212 | 33744 ft | 442 kts | 147° |
| 2026-05-07 20:05 | 45.37959 | 25.08760 | 34087 ft | 439 kts | 147° |
| 2026-05-07 20:05 | 45.35515 | 25.11290 | 34474 ft | 436 kts | 147° |
| 2026-05-07 20:05 | 45.33075 | 25.13811 | 34853 ft | 433 kts | 147° |
| 2026-05-07 20:05 | 45.30637 | 25.16328 | 35112 ft | 434 kts | 147° |
| 2026-05-07 20:06 | 45.25661 | 25.21444 | 35173 ft | 450 kts | 147° |
| 2026-05-07 20:06 | 45.20535 | 25.26705 | 35157 ft | 462 kts | 147° |
| 2026-05-07 20:07 | 45.15359 | 25.32022 | 35057 ft | 457 kts | 147° |
| 2026-05-07 20:07 | 45.10189 | 25.37319 | 35042 ft | 461 kts | 147° |
| 2026-05-07 20:08 | 45.04993 | 25.42629 | 35049 ft | 462 kts | 147° |
| 2026-05-07 20:08 | 44.99773 | 25.47950 | 35039 ft | 462 kts | 147° |
| 2026-05-07 20:09 | 44.94596 | 25.53214 | 35034 ft | 462 kts | 147° |
| 2026-05-07 20:10 | 44.86791 | 25.61128 | 35029 ft | 463 kts | 146° |
| 2026-05-07 20:10 | 44.81564 | 25.66412 | 35034 ft | 464 kts | 147° |
| 2026-05-07 20:11 | 44.76301 | 25.71719 | 35040 ft | 464 kts | 147° |
| 2026-05-07 20:11 | 44.71051 | 25.77002 | 35045 ft | 465 kts | 147° |
| 2026-05-07 20:12 | 44.65758 | 25.82316 | 35049 ft | 466 kts | 147° |
| 2026-05-07 20:12 | 44.60508 | 25.87575 | 35049 ft | 467 kts | 147° |
| 2026-05-07 20:13 | 44.55182 | 25.92898 | 35048 ft | 468 kts | 147° |
| 2026-05-07 20:13 | 44.49915 | 25.98150 | 35048 ft | 468 kts | 147° |
| 2026-05-07 20:14 | 44.44582 | 26.03453 | 35047 ft | 469 kts | 147° |
| 2026-05-07 20:14 | 44.39264 | 26.08731 | 35047 ft | 471 kts | 147° |
| 2026-05-07 20:15 | 44.33940 | 26.14003 | 35047 ft | 473 kts | 147° |
| 2026-05-07 20:15 | 44.28565 | 26.19315 | 35046 ft | 472 kts | 147° |
| 2026-05-07 20:16 | 44.23205 | 26.24600 | 35046 ft | 472 kts | 147° |
| 2026-05-07 20:16 | 44.17838 | 26.29881 | 35049 ft | 472 kts | 147° |
| 2026-05-07 20:17 | 44.12496 | 26.35123 | 35053 ft | 472 kts | 147° |
| 2026-05-07 20:17 | 44.07114 | 26.40392 | 35056 ft | 472 kts | 147° |
| 2026-05-07 20:18 | 44.01743 | 26.45638 | 35059 ft | 472 kts | 147° |
| 2026-05-07 20:18 | 43.96385 | 26.50860 | 35061 ft | 472 kts | 147° |
| 2026-05-07 20:19 | 43.90992 | 26.56104 | 35064 ft | 473 kts | 147° |
| 2026-05-07 20:19 | 43.85619 | 26.61316 | 35067 ft | 473 kts | 147° |
| 2026-05-07 20:20 | 43.80213 | 26.66548 | 35070 ft | 473 kts | 147° |
| 2026-05-07 20:20 | 43.74821 | 26.71756 | 35073 ft | 474 kts | 147° |
| 2026-05-07 20:21 | 43.69401 | 26.76979 | 35076 ft | 474 kts | 147° |
| 2026-05-07 20:21 | 43.63983 | 26.82188 | 35078 ft | 475 kts | 147° |
| 2026-05-07 20:22 | 43.58562 | 26.87389 | 35081 ft | 476 kts | 147° |
| 2026-05-07 20:22 | 43.53125 | 26.92594 | 35084 ft | 476 kts | 147° |
| 2026-05-07 20:23 | 43.47683 | 26.97791 | 35086 ft | 477 kts | 147° |
| 2026-05-07 20:23 | 43.42238 | 27.02980 | 35087 ft | 477 kts | 147° |
| 2026-05-07 20:24 | 43.36766 | 27.08182 | 35088 ft | 477 kts | 147° |
| 2026-05-07 20:24 | 43.31347 | 27.13324 | 35089 ft | 477 kts | 146° |
| 2026-05-07 20:25 | 43.25860 | 27.18517 | 35091 ft | 478 kts | 146° |
| 2026-05-07 20:25 | 43.20404 | 27.23670 | 35092 ft | 478 kts | 146° |
| 2026-05-07 20:26 | 43.14958 | 27.28802 | 35093 ft | 478 kts | 146° |
| 2026-05-07 20:26 | 43.09473 | 27.33959 | 35094 ft | 478 kts | 146° |
| 2026-05-07 20:27 | 43.03967 | 27.39125 | 35095 ft | 479 kts | 146° |
| 2026-05-07 20:27 | 42.98655 | 27.44604 | 35097 ft | 480 kts | 139° |
| 2026-05-07 20:28 | 42.93906 | 27.50984 | 35098 ft | 481 kts | 133° |
| 2026-05-07 20:28 | 42.89420 | 27.57712 | 35098 ft | 480 kts | 131° |
| 2026-05-07 20:29 | 42.85001 | 27.64466 | 35098 ft | 481 kts | 131° |
| 2026-05-07 20:29 | 42.80529 | 27.71230 | 35099 ft | 481 kts | 132° |
| 2026-05-07 20:30 | 42.76009 | 27.77985 | 35099 ft | 482 kts | 132° |
| 2026-05-07 20:30 | 42.71491 | 27.84681 | 35099 ft | 482 kts | 133° |
| 2026-05-07 20:31 | 42.66985 | 27.91326 | 35103 ft | 483 kts | 133° |
| 2026-05-07 20:31 | 42.62416 | 27.98044 | 35118 ft | 483 kts | 132° |
| 2026-05-07 20:32 | 42.57880 | 28.04698 | 35128 ft | 484 kts | 132° |
| 2026-05-07 20:32 | 42.53337 | 28.11348 | 34748 ft | 481 kts | 132° |
| 2026-05-07 20:32 | 42.51070 | 28.14659 | 34261 ft | 480 kts | 132° |
| 2026-05-07 20:33 | 42.48787 | 28.17989 | 33539 ft | 483 kts | 132° |
| 2026-05-07 20:33 | 42.46514 | 28.21302 | 32774 ft | 487 kts | 132° |
| 2026-05-07 20:33 | 42.44208 | 28.24660 | 31962 ft | 491 kts | 132° |
| 2026-05-07 20:33 | 42.41887 | 28.28038 | 31347 ft | 488 kts | 132° |
| 2026-05-07 20:34 | 42.39604 | 28.31356 | 30681 ft | 483 kts | 132° |
| 2026-05-07 20:34 | 42.37313 | 28.34679 | 30098 ft | 476 kts | 132° |
| 2026-05-07 20:34 | 42.35101 | 28.37886 | 29555 ft | 468 kts | 132° |
| 2026-05-07 20:34 | 42.32890 | 28.41087 | 29016 ft | 461 kts | 131° |
| 2026-05-07 20:35 | 42.30731 | 28.44208 | 28587 ft | 457 kts | 131° |
| 2026-05-07 20:35 | 42.28542 | 28.47373 | 28098 ft | 462 kts | 131° |
| 2026-05-07 20:35 | 42.26369 | 28.50510 | 27573 ft | 462 kts | 131° |
| 2026-05-07 20:35 | 42.24161 | 28.53694 | 27030 ft | 458 kts | 131° |
| 2026-05-07 20:36 | 42.22000 | 28.56806 | 26470 ft | 455 kts | 131° |
| 2026-05-07 20:36 | 42.19874 | 28.59865 | 25933 ft | 451 kts | 131° |
| 2026-05-07 20:36 | 42.17724 | 28.62954 | 25386 ft | 448 kts | 131° |
| 2026-05-07 20:36 | 42.15611 | 28.65985 | 24846 ft | 444 kts | 132° |
| 2026-05-07 20:37 | 42.13492 | 28.69015 | 24296 ft | 440 kts | 133° |
| 2026-05-07 20:37 | 42.11329 | 28.71842 | 23769 ft | 436 kts | 138° |
| 2026-05-07 20:37 | 42.08876 | 28.74225 | 23238 ft | 431 kts | 152° |
| 2026-05-07 20:37 | 42.06177 | 28.75749 | 22961 ft | 421 kts | 164° |
| 2026-05-07 20:38 | 42.03312 | 28.76594 | 22680 ft | 418 kts | 174° |
| 2026-05-07 20:38 | 42.00447 | 28.76982 | 22408 ft | 417 kts | 178° |
| 2026-05-07 20:38 | 41.97544 | 28.77189 | 22130 ft | 414 kts | 180° |
| 2026-05-07 20:38 | 41.94698 | 28.77309 | 21856 ft | 412 kts | 181° |
| 2026-05-07 20:39 | 41.91820 | 28.77397 | 21606 ft | 410 kts | 181° |
| 2026-05-07 20:39 | 41.88997 | 28.77476 | 21360 ft | 408 kts | 181° |
| 2026-05-07 20:39 | 41.86137 | 28.77557 | 21110 ft | 407 kts | 181° |
| 2026-05-07 20:39 | 41.83345 | 28.77633 | 20863 ft | 404 kts | 182° |
| 2026-05-07 20:40 | 41.80545 | 28.77358 | 20610 ft | 396 kts | 193° |
| 2026-05-07 20:40 | 41.77977 | 28.76365 | 20367 ft | 380 kts | 207° |
| 2026-05-07 20:40 | 41.75688 | 28.74705 | 20123 ft | 366 kts | 218° |
| 2026-05-07 20:40 | 41.74670 | 28.73734 | 20001 ft | 360 kts | 222° |
| 2026-05-07 20:41 | 41.73976 | 28.72986 | 19912 ft | 355 kts | 225° |
| 2026-05-07 20:41 | 41.72265 | 28.70715 | 19668 ft | 342 kts | 234° |
| 2026-05-07 20:41 | 41.70799 | 28.68258 | 19388 ft | 331 kts | 238° |
| 2026-05-07 20:41 | 41.69466 | 28.65774 | 19189 ft | 332 kts | 239° |
| 2026-05-07 20:42 | 41.68151 | 28.63255 | 18931 ft | 333 kts | 239° |
| 2026-05-07 20:42 | 41.66822 | 28.60711 | 18677 ft | 329 kts | 239° |
| 2026-05-07 20:42 | 41.65514 | 28.58240 | 18431 ft | 327 kts | 239° |
| 2026-05-07 20:42 | 41.64180 | 28.55755 | 18183 ft | 327 kts | 238° |
| 2026-05-07 20:43 | 41.62857 | 28.53318 | 17937 ft | 326 kts | 238° |
| 2026-05-07 20:43 | 41.61515 | 28.50864 | 17687 ft | 324 kts | 238° |
| 2026-05-07 20:43 | 41.60198 | 28.48463 | 17442 ft | 323 kts | 238° |
| 2026-05-07 20:43 | 41.58885 | 28.46074 | 17195 ft | 321 kts | 238° |
| 2026-05-07 20:44 | 41.57557 | 28.43660 | 16945 ft | 320 kts | 237° |
| 2026-05-07 20:44 | 41.56256 | 28.41292 | 16696 ft | 318 kts | 237° |
| 2026-05-07 20:44 | 41.54936 | 28.38895 | 16405 ft | 316 kts | 237° |
| 2026-05-07 20:44 | 41.53651 | 28.36564 | 16113 ft | 312 kts | 237° |
| 2026-05-07 20:45 | 41.52375 | 28.34283 | 16096 ft | 313 kts | 236° |
| 2026-05-07 20:45 | 41.51046 | 28.31938 | 15878 ft | 314 kts | 235° |
| 2026-05-07 20:45 | 41.49744 | 28.29652 | 15507 ft | 312 kts | 235° |
| 2026-05-07 20:45 | 41.48428 | 28.27344 | 15104 ft | 310 kts | 235° |
| 2026-05-07 20:46 | 41.47136 | 28.25071 | 14705 ft | 309 kts | 235° |
| 2026-05-07 20:46 | 41.45833 | 28.22782 | 14297 ft | 308 kts | 235° |
| 2026-05-07 20:46 | 41.44555 | 28.20536 | 13898 ft | 306 kts | 235° |
| 2026-05-07 20:46 | 41.43279 | 28.18296 | 13502 ft | 304 kts | 235° |
| 2026-05-07 20:47 | 41.41995 | 28.16042 | 13106 ft | 303 kts | 235° |
| 2026-05-07 20:47 | 41.40735 | 28.13832 | 12706 ft | 301 kts | 234° |
| 2026-05-07 20:47 | 41.39345 | 28.11729 | 12307 ft | 301 kts | 224° |
| 2026-05-07 20:47 | 41.37579 | 28.10289 | 11931 ft | 303 kts | 200° |
| 2026-05-07 20:48 | 41.35522 | 28.09896 | 11575 ft | 302 kts | 181° |
| 2026-05-07 20:48 | 41.33478 | 28.09976 | 11169 ft | 303 kts | 179° |
| 2026-05-07 20:48 | 41.31300 | 28.10071 | 10666 ft | 305 kts | 180° |
| 2026-05-07 20:48 | 41.29203 | 28.10135 | 10282 ft | 303 kts | 180° |
| 2026-05-07 20:49 | 41.27109 | 28.10142 | 10068 ft | 294 kts | 185° |
| 2026-05-07 20:49 | 41.25161 | 28.09709 | 9957 ft | 279 kts | 203° |
| 2026-05-07 20:49 | 41.23596 | 28.08376 | 9972 ft | 265 kts | 225° |
| 2026-05-07 20:49 | 41.22286 | 28.06608 | 9963 ft | 267 kts | 228° |
| 2026-05-07 20:50 | 41.21017 | 28.04839 | 9961 ft | 266 kts | 227° |
| 2026-05-07 20:50 | 41.19722 | 28.03095 | 9966 ft | 267 kts | 226° |
| 2026-05-07 20:50 | 41.18197 | 28.01652 | 9964 ft | 270 kts | 204° |
| 2026-05-07 20:50 | 41.16399 | 28.00954 | 9972 ft | 272 kts | 194° |
| 2026-05-07 20:51 | 41.14498 | 28.00668 | 9779 ft | 276 kts | 175° |
| 2026-05-07 20:51 | 41.12706 | 28.01488 | 9542 ft | 277 kts | 146° |
| 2026-05-07 20:51 | 41.11409 | 28.03322 | 9308 ft | 278 kts | 120° |
| 2026-05-07 20:51 | 41.10524 | 28.05622 | 9072 ft | 277 kts | 116° |
| 2026-05-07 20:52 | 41.09666 | 28.07892 | 8824 ft | 276 kts | 117° |
| 2026-05-07 20:52 | 41.08789 | 28.10128 | 8575 ft | 275 kts | 118° |
| 2026-05-07 20:52 | 41.07899 | 28.12381 | 8328 ft | 274 kts | 118° |
| 2026-05-07 20:52 | 41.07025 | 28.14594 | 8083 ft | 273 kts | 118° |
| 2026-05-07 20:53 | 41.06143 | 28.16837 | 7834 ft | 272 kts | 118° |
| 2026-05-07 20:53 | 41.05279 | 28.19038 | 7606 ft | 268 kts | 118° |
| 2026-05-07 20:53 | 41.04430 | 28.21202 | 7306 ft | 266 kts | 118° |
| 2026-05-07 20:53 | 41.03572 | 28.23387 | 6988 ft | 265 kts | 118° |
| 2026-05-07 20:54 | 41.02726 | 28.25544 | 6673 ft | 264 kts | 118° |
| 2026-05-07 20:54 | 41.01887 | 28.27680 | 6359 ft | 264 kts | 118° |
| 2026-05-07 20:54 | 41.01037 | 28.29843 | 6042 ft | 263 kts | 118° |
| 2026-05-07 20:54 | 41.00198 | 28.31970 | 5732 ft | 261 kts | 118° |
| 2026-05-07 20:55 | 40.99366 | 28.34084 | 5424 ft | 260 kts | 118° |
| 2026-05-07 20:55 | 40.98525 | 28.36221 | 5115 ft | 259 kts | 118° |
| 2026-05-07 20:55 | 40.97704 | 28.38304 | 4959 ft | 252 kts | 118° |
| 2026-05-07 20:55 | 40.96882 | 28.40301 | 4965 ft | 246 kts | 120° |
| 2026-05-07 20:56 | 40.96022 | 28.42287 | 4966 ft | 247 kts | 121° |
| 2026-05-07 20:56 | 40.95168 | 28.44243 | 4965 ft | 246 kts | 121° |
| 2026-05-07 20:56 | 40.94320 | 28.46195 | 4966 ft | 246 kts | 120° |
| 2026-05-07 20:56 | 40.93464 | 28.48176 | 4966 ft | 246 kts | 120° |
| 2026-05-07 20:57 | 40.92623 | 28.50124 | 4966 ft | 246 kts | 120° |
| 2026-05-07 20:57 | 40.91780 | 28.52076 | 4967 ft | 246 kts | 120° |
| 2026-05-07 20:57 | 40.90926 | 28.54051 | 4967 ft | 246 kts | 120° |
| 2026-05-07 20:57 | 40.90082 | 28.56002 | 4967 ft | 246 kts | 119° |
| 2026-05-07 20:58 | 40.89381 | 28.58085 | 4963 ft | 247 kts | 103° |
| 2026-05-07 20:58 | 40.89337 | 28.60256 | 4970 ft | 247 kts | 76° |
| 2026-05-07 20:58 | 40.89910 | 28.62449 | 4970 ft | 247 kts | 66° |
| 2026-05-07 20:58 | 40.90560 | 28.64537 | 4966 ft | 246 kts | 67° |
| 2026-05-07 20:59 | 40.91171 | 28.66673 | 4967 ft | 247 kts | 69° |
| 2026-05-07 20:59 | 40.91871 | 28.68710 | 4961 ft | 242 kts | 57° |
| 2026-05-07 20:59 | 40.93024 | 28.70259 | 4975 ft | 234 kts | 30° |
| 2026-05-07 20:59 | 40.94470 | 28.71225 | 4969 ft | 234 kts | 23° |
| 2026-05-07 21:00 | 40.95971 | 28.72093 | 4966 ft | 233 kts | 21° |
| 2026-05-07 21:00 | 40.97488 | 28.72845 | 4967 ft | 233 kts | 15° |
| 2026-05-07 21:00 | 40.99071 | 28.73242 | 4967 ft | 231 kts | 2° |
| 2026-05-07 21:00 | 41.00681 | 28.73298 | 4967 ft | 231 kts | 358° |
| 2026-05-07 21:01 | 41.02275 | 28.73256 | 4965 ft | 230 kts | 357° |
| 2026-05-07 21:01 | 41.03885 | 28.73208 | 4847 ft | 233 kts | 357° |
| 2026-05-07 21:01 | 41.05516 | 28.73174 | 4473 ft | 237 kts | 358° |
| 2026-05-07 21:01 | 41.07165 | 28.73147 | 4165 ft | 236 kts | 358° |
| 2026-05-07 21:02 | 41.08816 | 28.73116 | 3816 ft | 235 kts | 358° |
| 2026-05-07 21:02 | 41.10432 | 28.73085 | 3485 ft | 233 kts | 358° |
| 2026-05-07 21:02 | 41.12030 | 28.73055 | 3155 ft | 225 kts | 358° |
| 2026-05-07 21:02 | 41.13538 | 28.73026 | 2866 ft | 205 kts | 358° |
| 2026-05-07 21:03 | 41.14904 | 28.72999 | 2569 ft | 190 kts | 358° |
| 2026-05-07 21:03 | 41.16170 | 28.72974 | 2367 ft | 173 kts | 358° |
| 2026-05-07 21:03 | 41.17346 | 28.72951 | 2053 ft | 165 kts | 359° |
| 2026-05-07 21:03 | 41.18475 | 28.72935 | 1778 ft | 160 kts | 359° |
| 2026-05-07 21:04 | 41.19587 | 28.72914 | 1507 ft | 158 kts | 359° |
| 2026-05-07 21:04 | 41.20702 | 28.72897 | 1391 ft | 159 kts | 359° |
| 2026-05-07 21:04 | 41.21823 | 28.72891 | 1170 ft | 165 kts | 360° |
| 2026-05-07 21:04 | 41.22935 | 28.72874 | 1001 ft | 159 kts | 358° |
| 2026-05-07 21:05 | 41.24059 | 28.72829 | 807 ft | 161 kts | 357° |
| 2026-05-07 21:05 | 41.25194 | 28.72791 | 583 ft | 161 kts | 359° |
| 2026-05-07 21:05 | 41.26294 | 28.72775 | 386 ft | 156 kts | 359° |
| 2026-05-07 21:05 | 41.27330 | 28.72757 | 333 ft | 135 kts | 0° |
| 2026-05-07 21:06 | 41.28105 | 28.72731 | 333 ft | 90 kts | 0° |
| 2026-05-07 21:06 | 41.28587 | 28.72777 | 333 ft | 47 kts | 27° |
| 2026-05-07 21:06 | 41.28708 | 28.72873 | 333 ft | 11 kts | 37° |
| 2026-05-07 21:06 | 41.28724 | 28.72955 | 333 ft | 10 kts | 133° |
| 2026-05-07 21:07 | 41.28661 | 28.72969 | 333 ft | 10 kts | 188° |
| 2026-05-07 21:07 | 41.28579 | 28.72958 | 333 ft | 13 kts | 184° |
| 2026-05-07 21:07 | 41.28487 | 28.72958 | 333 ft | 14 kts | 179° |
| 2026-05-07 21:07 | 41.28371 | 28.72961 | 333 ft | 21 kts | 179° |
| 2026-05-07 21:08 | 41.28221 | 28.72961 | 333 ft | 21 kts | 178° |
| 2026-05-07 21:08 | 41.28077 | 28.72967 | 333 ft | 20 kts | 178° |
| 2026-05-07 21:08 | 41.27935 | 28.72972 | 333 ft | 19 kts | 179° |
| 2026-05-07 21:08 | 41.27798 | 28.72972 | 333 ft | 19 kts | 181° |
| 2026-05-07 21:09 | 41.27663 | 28.72971 | 333 ft | 18 kts | 179° |
| 2026-05-07 21:09 | 41.27529 | 28.72973 | 333 ft | 20 kts | 181° |
| 2026-05-07 21:09 | 41.27390 | 28.72975 | 333 ft | 19 kts | 179° |
| 2026-05-07 21:09 | 41.27256 | 28.72981 | 333 ft | 19 kts | 179° |
| 2026-05-07 21:10 | 41.27124 | 28.72983 | 333 ft | 18 kts | 180° |
| 2026-05-07 21:10 | 41.27056 | 28.72993 | 333 ft | 6 kts | 146° |
| 2026-05-07 21:10 | 41.27038 | 28.73042 | 333 ft | 5 kts | 99° |
| 2026-05-07 21:10 | 41.27035 | 28.73093 | 333 ft | 5 kts | 94° |
| 2026-05-07 21:11 | 41.27033 | 28.73139 | 333 ft | 4 kts | 90° |
| 2026-05-07 21:11 | 41.27034 | 28.73183 | 333 ft | 6 kts | 89° |
| 2026-05-07 21:11 | 41.26987 | 28.73324 | 333 ft | 9 kts | 169° |
| 2026-05-07 21:12 | 41.26922 | 28.73328 | 333 ft | 9 kts | 179° |
| 2026-05-07 21:12 | 41.26859 | 28.73383 | 333 ft | 12 kts | 88° |
| 2026-05-07 21:12 | 41.26861 | 28.73494 | 333 ft | 11 kts | 90° |
| 2026-05-07 21:12 | 41.26861 | 28.73624 | 333 ft | 15 kts | 89° |
| 2026-05-07 21:13 | 41.26863 | 28.73766 | 333 ft | 15 kts | 89° |
| 2026-05-07 21:13 | 41.26815 | 28.73865 | 333 ft | 13 kts | 161° |
| 2026-05-07 21:13 | 41.26743 | 28.73873 | 333 ft | 5 kts | 195° |
| 2026-05-07 21:13 | 41.26710 | 28.73853 | 333 ft | 4 kts | 214° |
| 2026-05-07 21:14 | 41.26694 | 28.73820 | 333 ft | 3 kts | 252° |
| 2026-05-07 21:14 | 41.26693 | 28.73793 | 333 ft | 0 kts | 270° |
| 2026-05-07 21:14 | 41.26693 | 28.73792 | 333 ft | 0 kts | 270° |